createdAt,value
2016-12-24T00:00:53.301Z,0
2016-12-24T00:01:53.309Z,0
2016-12-24T00:02:52.305Z,0
2016-12-24T00:03:53.613Z,0
2016-12-24T00:04:53.617Z,0
2016-12-24T00:05:53.601Z,0
2016-12-24T00:06:53.273Z,0
2016-12-24T00:07:53.606Z,0
2016-12-24T00:08:53.602Z,0
2016-12-24T00:09:52.934Z,0
2016-12-24T00:10:53.590Z,0
2016-12-24T00:11:53.270Z,0
2016-12-24T00:12:52.605Z,0
2016-12-24T00:13:53.250Z,0
2016-12-24T00:14:53.586Z,0
2016-12-24T00:15:53.250Z,0
2016-12-24T00:16:52.602Z,0
2016-12-24T00:17:53.250Z,0
2016-12-24T00:18:52.910Z,0
2016-12-24T00:19:53.234Z,0
2016-12-24T00:20:53.550Z,0
2016-12-24T00:21:53.558Z,0
2016-12-24T00:22:53.230Z,0
2016-12-24T00:23:52.562Z,0
2016-12-24T00:24:53.210Z,0
2016-12-24T00:25:53.546Z,0
2016-12-24T00:26:53.210Z,0
2016-12-24T00:27:52.890Z,0
2016-12-24T00:28:53.199Z,0
2016-12-24T00:29:52.535Z,0
2016-12-24T00:30:53.526Z,0
2016-12-24T00:31:53.227Z,0
2016-12-24T00:32:53.523Z,0
2016-12-24T00:33:53.187Z,0
2016-12-24T00:34:53.515Z,0
2016-12-24T00:36:53.515Z,0
2016-12-24T00:37:52.839Z,0
2016-12-24T00:38:53.167Z,0
2016-12-24T00:39:53.163Z,0
2016-12-24T00:40:53.159Z,0
2016-12-24T00:41:52.835Z,0
2016-12-24T00:42:53.491Z,0
2016-12-24T00:43:53.155Z,0
2016-12-24T00:44:53.475Z,0
2016-12-24T00:45:53.147Z,0
2016-12-24T00:46:53.171Z,0
2016-12-24T00:47:53.140Z,0
2016-12-24T00:48:53.460Z,0
2016-12-24T00:49:53.131Z,0
2016-12-24T00:50:53.484Z,0
2016-12-24T00:51:53.455Z,0
2016-12-24T00:52:53.479Z,0
2016-12-24T00:53:52.471Z,0
2016-12-24T00:54:52.464Z,0
2016-12-24T00:55:52.788Z,0
2016-12-24T00:56:53.100Z,0
2016-12-24T00:57:53.096Z,0
2016-12-24T00:58:52.772Z,0
2016-12-24T00:59:53.424Z,0
2016-12-24T01:00:53.092Z,0
2016-12-24T01:01:53.080Z,0
2016-12-24T01:02:53.416Z,0
2016-12-24T01:03:53.436Z,0
2016-12-24T01:04:53.072Z,0
2016-12-24T01:05:53.072Z,0
2016-12-24T01:06:53.072Z,0
2016-12-24T01:07:52.736Z,0
2016-12-24T01:08:53.060Z,0
2016-12-24T01:09:53.392Z,0
2016-12-24T01:10:53.060Z,0
2016-12-24T01:11:53.064Z,0
2016-12-24T01:12:53.055Z,0
2016-12-24T01:13:53.048Z,0
2016-12-24T01:14:52.717Z,0
2016-12-24T01:15:52.704Z,0
2016-12-24T01:16:52.716Z,0
2016-12-24T01:17:52.704Z,0
2016-12-24T01:18:52.372Z,0
2016-12-24T01:19:53.028Z,0
2016-12-24T01:20:52.701Z,0
2016-12-24T01:21:52.689Z,0
2016-12-24T01:22:53.012Z,0
2016-12-24T01:23:53.013Z,0
2016-12-24T01:24:53.333Z,0
2016-12-24T01:25:53.005Z,0
2016-12-24T01:26:52.352Z,0
2016-12-24T01:27:52.997Z,0
2016-12-24T01:28:52.665Z,0
2016-12-24T01:29:52.661Z,0
2016-12-24T01:30:52.992Z,0
2016-12-24T01:31:52.905Z,0
2016-12-24T01:32:52.977Z,0
2016-12-24T01:33:53.297Z,0
2016-12-24T01:34:52.973Z,0
2016-12-24T01:35:52.637Z,0
2016-12-24T01:36:52.961Z,0
2016-12-24T01:37:52.641Z,0
2016-12-24T01:38:53.277Z,0
2016-12-24T01:39:52.305Z,0
2016-12-24T01:40:52.953Z,0
2016-12-24T01:41:52.941Z,0
2016-12-24T01:42:53.281Z,0
2016-12-24T01:43:53.270Z,0
2016-12-24T01:44:53.257Z,0
2016-12-24T01:45:52.929Z,0
2016-12-24T01:46:53.253Z,0
2016-12-24T01:47:53.253Z,0
2016-12-24T01:48:52.925Z,0
2016-12-24T01:49:52.913Z,0
2016-12-24T01:50:52.922Z,0
2016-12-24T01:51:52.913Z,0
2016-12-24T01:52:52.285Z,0
2016-12-24T01:53:53.245Z,0
2016-12-24T01:54:52.925Z,0
2016-12-24T01:55:53.233Z,0
2016-12-24T01:56:52.897Z,0
2016-12-24T01:57:52.557Z,0
2016-12-24T01:58:52.889Z,0
2016-12-24T01:59:52.877Z,0
2016-12-24T02:00:52.885Z,0
2016-12-24T02:01:53.209Z,0
2016-12-24T02:02:52.873Z,0
2016-12-24T02:03:52.549Z,0
2016-12-24T02:04:52.533Z,0
2016-12-24T02:05:52.865Z,0
2016-12-24T02:06:53.194Z,0
2016-12-24T02:07:53.176Z,0
2016-12-24T02:08:52.524Z,0
2016-12-24T02:09:53.175Z,0
2016-12-24T02:10:53.172Z,0
2016-12-24T02:11:53.168Z,0
2016-12-24T02:12:52.508Z,0
2016-12-24T02:13:52.504Z,0
2016-12-24T02:14:53.148Z,0
2016-12-24T02:15:52.500Z,0
2016-12-24T02:16:53.146Z,0
2016-12-24T02:17:52.495Z,0
2016-12-24T02:18:52.816Z,0
2016-12-24T02:19:52.492Z,0
2016-12-24T02:20:52.808Z,0
2016-12-24T02:21:53.136Z,0
2016-12-24T02:22:52.804Z,0
2016-12-24T02:23:52.792Z,0
2016-12-24T02:24:53.116Z,0
2016-12-24T02:25:52.128Z,0
2016-12-24T02:26:52.492Z,0
2016-12-24T02:27:52.448Z,0
2016-12-24T02:28:52.456Z,0
2016-12-24T02:29:52.452Z,0
2016-12-24T02:30:52.772Z,0
2016-12-24T02:31:52.768Z,0
2016-12-24T02:32:53.092Z,0
2016-12-24T02:33:52.432Z,0
2016-12-24T02:34:52.100Z,0
2016-12-24T02:35:53.080Z,0
2016-12-24T02:36:52.096Z,0
2016-12-24T02:37:52.740Z,0
2016-12-24T02:38:53.072Z,0
2016-12-24T02:39:52.740Z,0
2016-12-24T02:40:52.764Z,0
2016-12-24T02:41:53.056Z,0
2016-12-24T02:42:53.076Z,0
2016-12-24T02:43:52.408Z,0
2016-12-24T02:44:52.720Z,0
2016-12-24T02:45:52.720Z,0
2016-12-24T02:46:52.716Z,0
2016-12-24T02:47:52.708Z,0
2016-12-24T02:48:52.712Z,0
2016-12-24T02:49:52.376Z,0
2016-12-24T02:50:52.372Z,0
2016-12-24T02:51:52.701Z,0
2016-12-24T02:52:53.024Z,0
2016-12-24T02:53:53.013Z,0
2016-12-24T02:54:52.713Z,0
2016-12-24T02:55:52.353Z,0
2016-12-24T02:56:53.008Z,0
2016-12-24T02:57:52.673Z,0
2016-12-24T02:58:52.669Z,0
2016-12-24T02:59:52.665Z,0
2016-12-24T03:00:52.993Z,0
2016-12-24T03:01:52.337Z,0
2016-12-24T03:02:52.657Z,0
2016-12-24T03:03:52.641Z,0
2016-12-24T03:04:52.641Z,0
2016-12-24T03:05:52.649Z,0
2016-12-24T03:06:53.001Z,0
2016-12-24T03:07:52.637Z,0
2016-12-24T03:08:52.305Z,0
2016-12-24T03:09:52.965Z,0
2016-12-24T03:10:52.333Z,0
2016-12-24T03:11:52.629Z,0
2016-12-24T03:12:52.295Z,0
2016-12-24T03:13:51.639Z,0
2016-12-24T03:14:52.610Z,0
2016-12-24T03:15:51.961Z,0
2016-12-24T03:16:52.286Z,0
2016-12-24T03:17:52.930Z,0
2016-12-24T03:18:52.274Z,0
2016-12-24T03:19:52.926Z,0
2016-12-24T03:20:52.274Z,0
2016-12-24T03:21:52.266Z,0
2016-12-24T03:22:52.582Z,0
2016-12-24T03:23:52.258Z,0
2016-12-24T03:24:52.262Z,0
2016-12-24T03:25:52.580Z,0
2016-12-24T03:26:52.570Z,0
2016-12-24T03:27:52.242Z,0
2016-12-24T03:28:52.882Z,0
2016-12-24T03:29:52.274Z,0
2016-12-24T03:30:51.906Z,0
2016-12-24T03:31:52.886Z,0
2016-12-24T03:32:52.550Z,0
2016-12-24T03:33:52.535Z,0
2016-12-24T03:34:52.547Z,0
2016-12-24T03:35:52.534Z,0
2016-12-24T03:36:52.535Z,0
2016-12-24T03:37:52.531Z,0
2016-12-24T03:38:52.526Z,0
2016-12-24T03:39:52.207Z,0
2016-12-24T03:40:52.518Z,0
2016-12-24T03:41:52.195Z,0
2016-12-24T03:42:51.855Z,0
2016-12-24T03:43:52.518Z,0
2016-12-24T03:44:52.175Z,0
2016-12-24T03:45:52.507Z,0
2016-12-24T03:46:52.491Z,0
2016-12-24T03:47:52.823Z,0
2016-12-24T03:48:52.815Z,0
2016-12-24T03:49:52.819Z,0
2016-12-24T03:50:52.827Z,0
2016-12-24T03:51:52.811Z,0
2016-12-24T03:52:52.479Z,0
2016-12-24T03:53:52.808Z,0
2016-12-24T03:54:52.475Z,0
2016-12-24T03:55:52.471Z,0
2016-12-24T03:56:52.792Z,0
2016-12-24T03:57:52.128Z,0
2016-12-24T03:58:52.127Z,0
2016-12-24T03:59:51.796Z,0
2016-12-24T04:00:51.784Z,0
2016-12-24T04:01:52.767Z,0
2016-12-24T04:02:52.444Z,0
2016-12-24T04:03:52.434Z,0
2016-12-24T04:04:52.444Z,0
2016-12-24T04:05:52.440Z,0
2016-12-24T04:06:52.456Z,0
2016-12-24T04:07:51.764Z,0
2016-12-24T04:08:52.444Z,0
2016-12-24T04:09:52.740Z,0
2016-12-24T04:10:51.768Z,0
2016-12-24T04:11:52.409Z,0
2016-12-24T04:12:52.405Z,0
2016-12-24T04:13:52.729Z,0
2016-12-24T04:14:51.750Z,0
2016-12-24T04:15:52.717Z,0
2016-12-24T04:16:52.392Z,0
2016-12-24T04:17:51.733Z,0
2016-12-24T04:18:52.381Z,0
2016-12-24T04:19:52.710Z,0
2016-12-24T04:20:52.376Z,0
2016-12-24T04:21:52.377Z,0
2016-12-24T04:22:52.377Z,0
2016-12-24T04:23:52.369Z,0
2016-12-24T04:24:52.361Z,0
2016-12-24T04:25:51.713Z,0
2016-12-24T04:26:52.357Z,0
2016-12-24T04:27:52.353Z,0
2016-12-24T04:28:52.669Z,0
2016-12-24T04:29:52.017Z,0
2016-12-24T04:30:52.345Z,0
2016-12-24T04:31:51.686Z,0
2016-12-24T04:32:52.006Z,0
2016-12-24T04:33:52.321Z,0
2016-12-24T04:34:52.650Z,0
2016-12-24T04:35:51.990Z,0
2016-12-24T04:36:51.662Z,0
2016-12-24T04:37:52.310Z,0
2016-12-24T04:38:51.982Z,0
2016-12-24T04:39:52.302Z,0
2016-12-24T04:40:52.627Z,0
2016-12-24T04:41:52.302Z,0
2016-12-24T04:42:52.302Z,0
2016-12-24T04:43:51.643Z,0
2016-12-24T04:44:51.962Z,0
2016-12-24T04:45:51.626Z,0
2016-12-24T04:46:51.954Z,0
2016-12-24T04:47:52.610Z,0
2016-12-24T04:48:52.607Z,0
2016-12-24T04:49:52.598Z,0
2016-12-24T04:50:52.259Z,0
2016-12-24T04:51:52.262Z,0
2016-12-24T04:52:51.931Z,0
2016-12-24T04:53:52.580Z,0
2016-12-24T04:54:51.927Z,0
2016-12-24T04:55:52.579Z,0
2016-12-24T04:56:52.247Z,0
2016-12-24T04:57:52.587Z,0
2016-12-24T04:58:52.243Z,0
2016-12-24T04:59:51.587Z,0
2016-12-24T05:00:52.232Z,0
2016-12-24T05:01:51.571Z,0
2016-12-24T05:02:52.224Z,0
2016-12-24T05:03:52.244Z,0
2016-12-24T05:04:52.552Z,0
2016-12-24T05:05:51.884Z,0
2016-12-24T05:06:52.540Z,0
2016-12-24T05:07:51.879Z,0
2016-12-24T05:08:52.524Z,0
2016-12-24T05:09:51.872Z,0
2016-12-24T05:10:52.196Z,0
2016-12-24T05:11:52.188Z,0
2016-12-24T05:12:52.196Z,0
2016-12-24T05:13:52.180Z,0
2016-12-24T05:14:52.168Z,0
2016-12-24T05:15:52.180Z,0
2016-12-24T05:16:52.164Z,0
2016-12-24T05:17:52.504Z,0
2016-12-24T05:18:51.508Z,0
2016-12-24T05:19:52.489Z,0
2016-12-24T05:20:51.820Z,0
2016-12-24T05:21:52.149Z,0
2016-12-24T05:22:52.481Z,0
2016-12-24T05:23:52.137Z,0
2016-12-24T05:24:52.465Z,0
2016-12-24T05:25:52.149Z,0
2016-12-24T05:26:52.465Z,0
2016-12-24T05:27:51.809Z,0
2016-12-24T05:28:52.461Z,0
2016-12-24T05:29:52.446Z,0
2016-12-24T05:30:52.449Z,0
2016-12-24T05:31:51.953Z,0
2016-12-24T05:32:52.119Z,0
2016-12-24T05:33:52.105Z,0
2016-12-24T05:34:52.429Z,0
2016-12-24T05:35:52.102Z,0
2016-12-24T05:36:52.098Z,0
2016-12-24T05:37:52.090Z,0
2016-12-24T05:38:52.086Z,0
2016-12-24T05:39:51.765Z,0
2016-12-24T05:40:51.757Z,0
2016-12-24T05:41:52.078Z,0
2016-12-24T05:42:52.402Z,0
2016-12-24T05:43:52.402Z,0
2016-12-24T05:44:52.070Z,0
2016-12-24T05:45:52.066Z,0
2016-12-24T05:46:52.063Z,0
2016-12-24T05:47:52.066Z,0
2016-12-24T05:48:51.067Z,0
2016-12-24T05:49:51.730Z,0
2016-12-24T05:50:52.070Z,0
2016-12-24T05:51:52.366Z,0
2016-12-24T05:52:52.374Z,0
2016-12-24T05:53:52.367Z,0
2016-12-24T05:54:52.027Z,0
2016-12-24T05:55:52.358Z,0
2016-12-24T05:56:52.030Z,0
2016-12-24T05:57:51.687Z,0
2016-12-24T05:58:52.335Z,0
2016-12-24T05:59:51.679Z,0
2016-12-24T06:00:51.674Z,0
2016-12-24T06:01:52.331Z,0
2016-12-24T06:02:52.000Z,0
2016-12-24T06:03:51.999Z,0
2016-12-24T06:04:51.996Z,0
2016-12-24T06:05:52.007Z,0
2016-12-24T06:06:51.335Z,0
2016-12-24T06:07:52.315Z,0
2016-12-24T06:08:51.655Z,0
2016-12-24T06:09:52.307Z,0
2016-12-24T06:10:51.968Z,0
2016-12-24T06:11:51.967Z,0
2016-12-24T06:12:51.977Z,0
2016-12-24T06:13:51.959Z,0
2016-12-24T06:14:51.959Z,0
2016-12-24T06:15:52.279Z,0
2016-12-24T06:16:51.952Z,0
2016-12-24T06:17:51.944Z,0
2016-12-24T06:18:51.960Z,0
2016-12-24T06:19:51.280Z,0
2016-12-24T06:20:52.263Z,0
2016-12-24T06:21:51.280Z,0
2016-12-24T06:22:51.924Z,0
2016-12-24T06:23:52.244Z,0
2016-12-24T06:24:51.612Z,0
2016-12-24T06:25:52.240Z,0
2016-12-24T06:26:52.236Z,0
2016-12-24T06:27:51.580Z,0
2016-12-24T06:28:52.240Z,0
2016-12-24T06:29:51.896Z,0
2016-12-24T06:30:51.236Z,0
2016-12-24T06:31:51.568Z,0
2016-12-24T06:32:51.220Z,0
2016-12-24T06:33:51.876Z,0
2016-12-24T06:34:52.213Z,0
2016-12-24T06:35:51.217Z,0
2016-12-24T06:36:51.537Z,0
2016-12-24T06:37:51.536Z,0
2016-12-24T06:38:51.540Z,0
2016-12-24T06:39:52.188Z,0
2016-12-24T06:40:51.857Z,0
2016-12-24T06:41:52.192Z,0
2016-12-24T06:42:52.185Z,0
2016-12-24T06:43:51.841Z,0
2016-12-24T06:44:51.525Z,0
2016-12-24T06:45:52.169Z,0
2016-12-24T06:46:52.169Z,0
2016-12-24T06:47:51.501Z,0
2016-12-24T06:48:51.497Z,0
2016-12-24T06:49:51.817Z,0
2016-12-24T06:50:51.817Z,0
2016-12-24T06:51:52.137Z,0
2016-12-24T06:52:51.805Z,0
2016-12-24T06:53:51.813Z,0
2016-12-24T06:54:52.125Z,0
2016-12-24T06:55:51.473Z,0
2016-12-24T06:56:52.117Z,0
2016-12-24T06:57:51.453Z,0
2016-12-24T06:58:51.134Z,0
2016-12-24T06:59:51.781Z,0
2016-12-24T07:00:51.781Z,0
2016-12-24T07:01:52.101Z,0
2016-12-24T07:02:51.777Z,0
2016-12-24T07:03:51.438Z,0
2016-12-24T07:04:51.429Z,0
2016-12-24T07:05:52.086Z,0
2016-12-24T07:06:51.426Z,0
2016-12-24T07:07:51.750Z,0
2016-12-24T07:08:51.414Z,0
2016-12-24T07:09:51.082Z,0
2016-12-24T07:10:51.733Z,0
2016-12-24T07:11:52.062Z,0
2016-12-24T07:12:52.062Z,0
2016-12-24T07:13:51.734Z,0
2016-12-24T07:14:52.074Z,0
2016-12-24T07:15:51.725Z,0
2016-12-24T07:16:51.722Z,0
2016-12-24T07:17:51.386Z,0
2016-12-24T07:18:51.698Z,0
2016-12-24T07:19:52.026Z,0
2016-12-24T07:20:51.718Z,0
2016-12-24T07:21:51.703Z,0
2016-12-24T07:22:51.690Z,5
2016-12-24T07:23:52.010Z,5
2016-12-24T07:24:51.686Z,5
2016-12-24T07:25:51.675Z,5
2016-12-24T07:26:51.354Z,5
2016-12-24T07:27:51.998Z,5
2016-12-24T07:28:51.990Z,5
2016-12-24T07:29:51.002Z,5
2016-12-24T07:30:51.982Z,5
2016-12-24T07:31:51.586Z,5
2016-12-24T07:32:51.978Z,5
2016-12-24T07:33:51.978Z,5
2016-12-24T07:34:51.650Z,10
2016-12-24T07:35:51.975Z,10
2016-12-24T07:36:51.630Z,10
2016-12-24T07:37:51.626Z,10
2016-12-24T07:38:51.962Z,10
2016-12-24T07:39:51.950Z,10
2016-12-24T07:40:51.618Z,15
2016-12-24T07:41:51.286Z,15
2016-12-24T07:42:50.959Z,15
2016-12-24T07:43:51.639Z,15
2016-12-24T07:44:51.614Z,15
2016-12-24T07:45:51.611Z,10
2016-12-24T07:46:51.603Z,10
2016-12-24T07:47:51.923Z,10
2016-12-24T07:48:51.599Z,10
2016-12-24T07:49:51.587Z,10
2016-12-24T07:50:51.911Z,10
2016-12-24T07:51:51.911Z,10
2016-12-24T07:52:51.251Z,15
2016-12-24T07:53:51.575Z,15
2016-12-24T07:54:51.567Z,15
2016-12-24T07:55:51.567Z,15
2016-12-24T07:56:51.891Z,15
2016-12-24T07:57:51.223Z,20
2016-12-24T07:58:50.900Z,20
2016-12-24T07:59:51.874Z,20
2016-12-24T08:00:51.223Z,20
2016-12-24T08:01:50.883Z,20
2016-12-24T08:02:51.531Z,20
2016-12-24T08:03:51.895Z,25
2016-12-24T08:04:51.527Z,25
2016-12-24T08:05:51.855Z,25
2016-12-24T08:06:51.223Z,25
2016-12-24T08:07:51.295Z,25
2016-12-24T08:08:51.839Z,25
2016-12-24T08:09:51.839Z,25
2016-12-24T08:10:50.847Z,30
2016-12-24T08:11:51.175Z,30
2016-12-24T08:12:51.823Z,30
2016-12-24T08:13:51.500Z,30
2016-12-24T08:14:51.487Z,30
2016-12-24T08:15:51.815Z,35
2016-12-24T08:16:51.491Z,35
2016-12-24T08:17:51.811Z,35
2016-12-24T08:18:51.475Z,35
2016-12-24T08:19:51.803Z,35
2016-12-24T08:20:51.803Z,35
2016-12-24T08:21:51.463Z,40
2016-12-24T08:22:51.455Z,40
2016-12-24T08:23:51.795Z,40
2016-12-24T08:24:51.459Z,40
2016-12-24T08:25:51.791Z,45
2016-12-24T08:26:51.115Z,45
2016-12-24T08:27:50.791Z,45
2016-12-24T08:28:51.444Z,45
2016-12-24T08:29:51.435Z,50
2016-12-24T08:30:51.763Z,50
2016-12-24T08:31:51.424Z,55
2016-12-24T08:32:51.428Z,55
2016-12-24T08:33:51.420Z,55
2016-12-24T08:34:51.744Z,55
2016-12-24T08:35:51.739Z,55
2016-12-24T08:36:51.407Z,55
2016-12-24T08:37:50.952Z,55
2016-12-24T08:38:51.736Z,55
2016-12-24T08:39:51.404Z,60
2016-12-24T08:40:51.724Z,60
2016-12-24T08:41:51.072Z,60
2016-12-24T08:42:51.052Z,60
2016-12-24T08:43:51.712Z,65
2016-12-24T08:44:51.380Z,65
2016-12-24T08:45:51.376Z,65
2016-12-24T08:46:51.708Z,65
2016-12-24T08:47:50.724Z,65
2016-12-24T08:48:51.380Z,65
2016-12-24T08:49:51.368Z,65
2016-12-24T08:50:51.688Z,70
2016-12-24T08:51:51.688Z,70
2016-12-24T08:52:51.692Z,70
2016-12-24T08:53:51.028Z,65
2016-12-24T08:54:51.364Z,70
2016-12-24T08:55:51.676Z,65
2016-12-24T08:56:51.344Z,65
2016-12-24T08:57:51.668Z,65
2016-12-24T08:58:51.336Z,65
2016-12-24T08:59:51.004Z,65
2016-12-24T09:00:51.660Z,65
2016-12-24T09:01:51.660Z,65
2016-12-24T09:02:51.649Z,60
2016-12-24T09:03:51.324Z,60
2016-12-24T09:04:51.316Z,55
2016-12-24T09:05:51.309Z,55
2016-12-24T09:06:50.320Z,50
2016-12-24T09:07:51.301Z,45
2016-12-24T09:08:50.980Z,45
2016-12-24T09:09:51.297Z,45
2016-12-24T09:10:51.301Z,45
2016-12-24T09:11:51.292Z,45
2016-12-24T09:12:51.617Z,50
2016-12-24T09:13:51.285Z,55
2016-12-24T09:14:51.621Z,55
2016-12-24T09:15:51.605Z,50
2016-12-24T09:16:50.949Z,50
2016-12-24T09:17:51.277Z,50
2016-12-24T09:18:51.265Z,50
2016-12-24T09:19:51.593Z,50
2016-12-24T09:20:51.261Z,50
2016-12-24T09:21:50.933Z,50
2016-12-24T09:22:51.585Z,50
2016-12-24T09:23:50.917Z,50
2016-12-24T09:24:51.581Z,50
2016-12-24T09:25:51.249Z,50
2016-12-24T09:26:50.913Z,50
2016-12-24T09:27:51.249Z,55
2016-12-24T09:28:51.565Z,55
2016-12-24T09:29:51.229Z,55
2016-12-24T09:30:51.554Z,55
2016-12-24T09:31:50.569Z,55
2016-12-24T09:32:51.545Z,55
2016-12-24T09:33:51.546Z,60
2016-12-24T09:34:50.889Z,60
2016-12-24T09:35:51.213Z,60
2016-12-24T09:36:51.214Z,65
2016-12-24T09:37:51.210Z,65
2016-12-24T09:38:51.530Z,70
2016-12-24T09:39:51.521Z,70
2016-12-24T09:40:51.202Z,75
2016-12-24T09:41:50.862Z,80
2016-12-24T09:42:51.522Z,80
2016-12-24T09:43:51.510Z,80
2016-12-24T09:44:50.850Z,80
2016-12-24T09:45:51.186Z,85
2016-12-24T09:46:51.170Z,85
2016-12-24T09:47:50.846Z,90
2016-12-24T09:48:50.514Z,95
2016-12-24T09:49:51.166Z,95
2016-12-24T09:50:51.174Z,95
2016-12-24T09:51:51.174Z,95
2016-12-24T09:52:51.154Z,100
2016-12-24T09:53:51.158Z,105
2016-12-24T09:54:51.162Z,110
2016-12-24T09:55:50.826Z,115
2016-12-24T09:56:51.146Z,115
2016-12-24T09:57:51.146Z,110
2016-12-24T09:58:51.474Z,100
2016-12-24T09:59:50.814Z,95
2016-12-24T10:00:50.482Z,90
2016-12-24T10:01:51.130Z,85
2016-12-24T10:02:50.799Z,85
2016-12-24T10:03:50.802Z,85
2016-12-24T10:04:51.447Z,90
2016-12-24T10:05:50.466Z,90
2016-12-24T10:06:51.146Z,90
2016-12-24T10:07:51.447Z,95
2016-12-24T10:08:50.782Z,95
2016-12-24T10:09:51.107Z,100
2016-12-24T10:10:50.783Z,105
2016-12-24T10:11:51.431Z,100
2016-12-24T10:12:51.423Z,85
2016-12-24T10:13:50.779Z,70
2016-12-24T10:14:51.123Z,60
2016-12-24T10:15:51.099Z,55
2016-12-24T10:16:50.119Z,55
2016-12-24T10:17:51.091Z,55
2016-12-24T10:18:51.083Z,55
2016-12-24T10:19:51.415Z,55
2016-12-24T10:20:51.075Z,50
2016-12-24T10:21:51.407Z,50
2016-12-24T10:22:50.743Z,50
2016-12-24T10:23:51.399Z,50
2016-12-24T10:24:51.079Z,50
2016-12-24T10:25:50.747Z,50
2016-12-24T10:26:50.727Z,50
2016-12-24T10:27:51.055Z,50
2016-12-24T10:28:51.047Z,50
2016-12-24T10:29:51.055Z,50
2016-12-24T10:30:51.375Z,50
2016-12-24T10:31:51.379Z,45
2016-12-24T10:32:51.047Z,45
2016-12-24T10:33:51.051Z,45
2016-12-24T10:34:50.707Z,40
2016-12-24T10:35:50.715Z,40
2016-12-24T10:36:51.364Z,35
2016-12-24T10:37:51.356Z,30
2016-12-24T10:38:50.703Z,30
2016-12-24T10:39:50.703Z,25
2016-12-24T10:40:51.016Z,25
2016-12-24T10:41:51.031Z,25
2016-12-24T10:42:51.391Z,25
2016-12-24T10:43:51.331Z,25
2016-12-24T10:44:51.019Z,30
2016-12-24T10:45:51.340Z,30
2016-12-24T10:46:51.007Z,35
2016-12-24T10:47:51.003Z,45
2016-12-24T10:48:51.007Z,45
2016-12-24T10:49:50.699Z,45
2016-12-24T10:50:50.988Z,45
2016-12-24T10:51:50.660Z,40
2016-12-24T10:52:50.663Z,40
2016-12-24T10:53:51.319Z,35
2016-12-24T10:54:50.984Z,35
2016-12-24T10:55:50.993Z,30
2016-12-24T10:56:51.304Z,30
2016-12-24T10:57:51.332Z,30
2016-12-24T10:58:50.656Z,30
2016-12-24T10:59:51.304Z,25
2016-12-24T11:00:50.639Z,25
2016-12-24T11:01:50.959Z,25
2016-12-24T11:02:51.292Z,25
2016-12-24T11:03:50.628Z,25
2016-12-24T11:04:50.632Z,25
2016-12-24T11:05:51.316Z,25
2016-12-24T11:06:50.948Z,25
2016-12-24T11:07:50.624Z,25
2016-12-24T11:08:51.272Z,30
2016-12-24T11:09:50.616Z,35
2016-12-24T11:10:51.272Z,40
2016-12-24T11:11:50.952Z,45
2016-12-24T11:12:51.264Z,40
2016-12-24T11:13:50.940Z,40
2016-12-24T11:14:51.260Z,40
2016-12-24T11:15:51.255Z,40
2016-12-24T11:16:50.928Z,40
2016-12-24T11:17:51.240Z,40
2016-12-24T11:18:51.248Z,40
2016-12-24T11:19:50.584Z,40
2016-12-24T11:20:50.916Z,40
2016-12-24T11:21:50.908Z,35
2016-12-24T11:22:51.236Z,35
2016-12-24T11:23:51.236Z,35
2016-12-24T11:24:50.252Z,35
2016-12-24T11:25:50.572Z,35
2016-12-24T11:26:51.260Z,35
2016-12-24T11:27:50.888Z,35
2016-12-24T11:28:50.896Z,35
2016-12-24T11:29:50.244Z,35
2016-12-24T11:30:50.888Z,35
2016-12-24T11:31:50.556Z,35
2016-12-24T11:32:50.884Z,35
2016-12-24T11:33:51.208Z,35
2016-12-24T11:34:50.556Z,35
2016-12-24T11:35:50.876Z,35
2016-12-24T11:36:50.548Z,35
2016-12-24T11:37:50.852Z,30
2016-12-24T11:38:50.208Z,30
2016-12-24T11:39:51.180Z,35
2016-12-24T11:40:50.856Z,40
2016-12-24T11:41:50.852Z,40
2016-12-24T11:42:50.872Z,40
2016-12-24T11:43:50.188Z,40
2016-12-24T11:44:50.515Z,40
2016-12-24T11:45:50.847Z,45
2016-12-24T11:46:50.851Z,45
2016-12-24T11:47:50.832Z,50
2016-12-24T11:48:50.831Z,55
2016-12-24T11:49:51.155Z,65
2016-12-24T11:50:50.495Z,65
2016-12-24T11:51:50.823Z,60
2016-12-24T11:52:50.171Z,55
2016-12-24T11:53:50.807Z,50
2016-12-24T11:54:50.487Z,45
2016-12-24T11:55:50.475Z,45
2016-12-24T11:56:51.135Z,45
2016-12-24T11:57:50.811Z,50
2016-12-24T11:58:50.799Z,45
2016-12-24T11:59:51.127Z,40
2016-12-24T12:00:50.795Z,35
2016-12-24T12:01:50.793Z,30
2016-12-24T12:02:51.119Z,35
2016-12-24T12:03:50.787Z,30
2016-12-24T12:04:50.779Z,30
2016-12-24T12:05:50.463Z,35
2016-12-24T12:06:51.103Z,35
2016-12-24T12:07:51.118Z,40
2016-12-24T12:08:50.452Z,35
2016-12-24T12:09:50.779Z,35
2016-12-24T12:10:51.099Z,40
2016-12-24T12:11:51.099Z,45
2016-12-24T12:12:51.091Z,45
2016-12-24T12:13:51.111Z,45
2016-12-24T12:14:51.091Z,45
2016-12-24T12:15:51.083Z,45
2016-12-24T12:16:51.083Z,40
2016-12-24T12:17:50.763Z,40
2016-12-24T12:18:50.811Z,35
2016-12-24T12:19:51.107Z,30
2016-12-24T12:20:51.063Z,30
2016-12-24T12:21:51.067Z,30
2016-12-24T12:22:50.743Z,30
2016-12-24T12:23:50.728Z,35
2016-12-24T12:24:51.063Z,40
2016-12-24T12:25:50.731Z,45
2016-12-24T12:26:51.063Z,40
2016-12-24T12:27:50.387Z,40
2016-12-24T12:28:50.723Z,35
2016-12-24T12:29:50.719Z,30
2016-12-24T12:30:51.040Z,30
2016-12-24T12:31:50.379Z,30
2016-12-24T12:32:51.040Z,30
2016-12-24T12:33:50.368Z,30
2016-12-24T12:34:51.036Z,30
2016-12-24T12:35:50.387Z,35
2016-12-24T12:36:50.692Z,35
2016-12-24T12:37:51.024Z,35
2016-12-24T12:38:51.024Z,35
2016-12-24T12:39:50.684Z,40
2016-12-24T12:40:51.008Z,35
2016-12-24T12:41:50.680Z,30
2016-12-24T12:42:50.680Z,25
2016-12-24T12:43:50.678Z,30
2016-12-24T12:44:50.992Z,25
2016-12-24T12:45:50.664Z,30
2016-12-24T12:46:50.349Z,25
2016-12-24T12:47:50.665Z,25
2016-12-24T12:48:50.984Z,20
2016-12-24T12:49:50.333Z,20
2016-12-24T12:50:50.665Z,25
2016-12-24T12:51:49.989Z,20
2016-12-24T12:52:50.313Z,25
2016-12-24T12:53:50.973Z,25
2016-12-24T12:54:49.981Z,30
2016-12-24T12:55:50.309Z,30
2016-12-24T12:56:50.961Z,30
2016-12-24T12:57:50.637Z,35
2016-12-24T12:58:50.633Z,40
2016-12-24T12:59:50.953Z,50
2016-12-24T13:00:50.633Z,45
2016-12-24T13:01:50.961Z,35
2016-12-24T13:02:50.777Z,30
2016-12-24T13:03:50.282Z,30
2016-12-24T13:04:50.949Z,30
2016-12-24T13:05:50.950Z,20
2016-12-24T13:06:50.637Z,15
2016-12-24T13:07:50.942Z,20
2016-12-24T13:08:50.630Z,25
2016-12-24T13:09:50.614Z,25
2016-12-24T13:10:50.604Z,25
2016-12-24T13:11:50.602Z,20
2016-12-24T13:12:50.926Z,20
2016-12-24T13:13:50.262Z,15
2016-12-24T13:14:50.266Z,15
2016-12-24T13:15:50.910Z,20
2016-12-24T13:16:50.578Z,20
2016-12-24T13:17:50.570Z,20
2016-12-24T13:18:50.591Z,20
2016-12-24T13:19:50.902Z,15
2016-12-24T13:20:50.251Z,10
2016-12-24T13:21:50.899Z,10
2016-12-24T13:22:50.895Z,15
2016-12-24T13:23:50.891Z,15
2016-12-24T13:24:50.891Z,15
2016-12-24T13:25:50.223Z,15
2016-12-24T13:26:50.555Z,15
2016-12-24T13:27:50.543Z,15
2016-12-24T13:28:50.223Z,15
2016-12-24T13:29:50.220Z,15
2016-12-24T13:30:50.876Z,15
2016-12-24T13:31:50.867Z,15
2016-12-24T13:32:50.560Z,10
2016-12-24T13:33:50.860Z,15
2016-12-24T13:34:50.528Z,15
2016-12-24T13:35:50.532Z,15
2016-12-24T13:36:49.872Z,10
2016-12-24T13:37:50.878Z,10
2016-12-24T13:38:50.528Z,15
2016-12-24T13:39:50.512Z,20
2016-12-24T13:40:50.185Z,25
2016-12-24T13:41:50.504Z,25
2016-12-24T13:42:50.837Z,25
2016-12-24T13:43:50.205Z,20
2016-12-24T13:44:50.501Z,20
2016-12-24T13:45:50.505Z,20
2016-12-24T13:46:50.493Z,20
2016-12-24T13:47:50.157Z,20
2016-12-24T13:48:50.157Z,15
2016-12-24T13:49:50.813Z,15
2016-12-24T13:50:50.481Z,15
2016-12-24T13:51:50.157Z,15
2016-12-24T13:52:50.478Z,15
2016-12-24T13:53:50.473Z,15
2016-12-24T13:54:50.794Z,15
2016-12-24T13:55:50.142Z,15
2016-12-24T13:56:50.466Z,15
2016-12-24T13:57:50.794Z,15
2016-12-24T13:58:50.786Z,10
2016-12-24T13:59:50.454Z,10
2016-12-24T14:00:50.450Z,10
2016-12-24T14:01:50.778Z,10
2016-12-24T14:02:50.442Z,10
2016-12-24T14:03:50.770Z,10
2016-12-24T14:04:50.450Z,10
2016-12-24T14:05:50.430Z,10
2016-12-24T14:06:50.106Z,10
2016-12-24T14:07:49.774Z,10
2016-12-24T14:08:50.758Z,10
2016-12-24T14:09:50.099Z,10
2016-12-24T14:10:50.418Z,5
2016-12-24T14:11:50.762Z,5
2016-12-24T14:12:50.739Z,5
2016-12-24T14:13:50.751Z,5
2016-12-24T14:14:50.087Z,5
2016-12-24T14:15:50.731Z,5
2016-12-24T14:16:50.075Z,5
2016-12-24T14:17:50.399Z,5
2016-12-24T14:18:50.719Z,5
2016-12-24T14:19:50.064Z,5
2016-12-24T14:20:50.391Z,5
2016-12-24T14:21:50.727Z,5
2016-12-24T14:22:50.535Z,5
2016-12-24T14:23:50.056Z,5
2016-12-24T14:24:50.387Z,5
2016-12-24T14:25:49.393Z,5
2016-12-24T14:26:50.380Z,10
2016-12-24T14:27:50.524Z,10
2016-12-24T14:28:49.712Z,10
2016-12-24T14:29:50.375Z,10
2016-12-24T14:30:50.372Z,10
2016-12-24T14:31:50.360Z,5
2016-12-24T14:32:50.352Z,5
2016-12-24T14:33:50.028Z,5